createdAt,value
2018-10-19T00:03:40.606Z,12.00
2018-10-19T00:08:24.463Z,12.00
2018-10-19T00:13:08.289Z,12.00
2018-10-19T00:17:52.167Z,12.10
2018-10-19T00:22:35.864Z,12.10
2018-10-19T00:27:19.718Z,12.10
2018-10-19T00:32:03.446Z,12.10
2018-10-19T00:36:47.529Z,12.10
2018-10-19T00:41:31.321Z,12.20
2018-10-19T00:46:15.214Z,12.20
2018-10-19T00:50:59.161Z,12.20
2018-10-19T00:55:43.225Z,12.30
2018-10-19T01:00:27.146Z,12.30
2018-10-19T01:05:11.300Z,12.20
2018-10-19T01:09:55.186Z,12.20
2018-10-19T01:14:39.107Z,12.30
2018-10-19T01:19:23.015Z,12.20
2018-10-19T01:24:06.993Z,12.20
2018-10-19T01:28:51.025Z,12.20
2018-10-19T01:33:35.185Z,12.20
2018-10-19T01:38:19.334Z,12.20
2018-10-19T01:43:03.525Z,12.30
2018-10-19T01:47:47.404Z,12.30
2018-10-19T01:52:31.385Z,12.30
2018-10-19T01:57:15.198Z,12.30
2018-10-19T02:01:58.979Z,12.30
2018-10-19T02:06:43.032Z,12.30
2018-10-19T02:11:26.976Z,12.30
2018-10-19T02:16:12.039Z,12.30
2018-10-19T02:20:55.912Z,12.30
2018-10-19T02:25:39.741Z,12.30
2018-10-19T02:30:23.557Z,12.30
2018-10-19T02:35:07.707Z,12.30
2018-10-19T02:39:51.535Z,12.30
2018-10-19T02:44:35.269Z,12.30
2018-10-19T02:49:19.131Z,12.20
2018-10-19T02:54:02.954Z,12.20
2018-10-19T02:58:46.786Z,12.20
2018-10-19T03:03:30.683Z,12.10
2018-10-19T03:08:14.617Z,12.10
2018-10-19T03:12:58.497Z,12.10
2018-10-19T03:17:42.196Z,12.10
2018-10-19T03:22:26.230Z,12.10
2018-10-19T03:27:10.089Z,12.10
2018-10-19T03:31:53.956Z,12.10
2018-10-19T03:36:37.688Z,12.10
2018-10-19T03:41:21.525Z,12.00
2018-10-19T03:46:06.015Z,12.00
2018-10-19T03:50:49.741Z,12.00
2018-10-19T03:55:33.671Z,12.00
2018-10-19T04:00:17.464Z,12.00
2018-10-19T04:05:01.451Z,11.90
2018-10-19T04:09:45.306Z,11.90
2018-10-19T04:14:30.180Z,11.90
2018-10-19T04:19:13.944Z,11.80
2018-10-19T04:23:57.822Z,11.80
2018-10-19T04:28:41.852Z,11.80
2018-10-19T04:33:25.691Z,11.80
2018-10-19T04:38:09.496Z,11.80
2018-10-19T04:42:53.257Z,11.70
2018-10-19T04:47:37.156Z,11.70
2018-10-19T04:52:21.521Z,11.70
2018-10-19T04:57:06.068Z,11.60
2018-10-19T05:01:49.909Z,11.50
2018-10-19T05:06:34.026Z,11.50
2018-10-19T05:11:17.773Z,11.50
2018-10-19T05:16:01.662Z,11.50
2018-10-19T05:20:45.707Z,11.50
2018-10-19T05:25:29.457Z,11.60
2018-10-19T05:30:14.158Z,11.40
2018-10-19T05:34:57.897Z,11.40
2018-10-19T05:39:41.979Z,11.40
2018-10-19T05:44:25.844Z,11.40
2018-10-19T05:49:09.643Z,11.30
2018-10-19T05:53:53.543Z,11.30
2018-10-19T05:58:37.594Z,11.20
2018-10-19T06:03:21.459Z,11.30
2018-10-19T06:08:05.333Z,11.30
2018-10-19T06:12:49.078Z,11.30
2018-10-19T06:17:32.990Z,11.30
2018-10-19T06:22:16.784Z,11.30
2018-10-19T06:27:00.588Z,11.40
2018-10-19T06:31:44.471Z,11.50
2018-10-19T06:36:28.192Z,11.50
2018-10-19T06:41:12.231Z,11.60
2018-10-19T06:45:55.921Z,11.70
2018-10-19T06:50:39.829Z,11.50
2018-10-19T06:55:23.638Z,11.50
2018-10-19T07:00:07.408Z,11.20
2018-10-19T07:04:51.370Z,11.10
2018-10-19T07:09:35.187Z,11.10
2018-10-19T07:14:19.080Z,11.10
2018-10-19T07:19:04.567Z,11.00
2018-10-19T07:23:48.556Z,11.00
2018-10-19T07:28:32.642Z,11.00
2018-10-19T07:33:17.608Z,11.00
2018-10-19T07:38:01.366Z,11.00
2018-10-19T07:42:45.200Z,11.10
2018-10-19T07:47:29.145Z,11.10
2018-10-19T07:52:13.160Z,11.10
2018-10-19T07:56:57.095Z,11.10
2018-10-19T08:01:41.072Z,11.10
2018-10-19T08:06:24.920Z,11.00
2018-10-19T08:11:08.747Z,11.00
2018-10-19T08:15:52.550Z,11.00
2018-10-19T08:20:36.826Z,10.80
2018-10-19T08:25:20.532Z,11.00
2018-10-19T08:30:04.492Z,11.00
2018-10-19T08:34:49.340Z,11.00
2018-10-19T08:39:33.316Z,11.10
2018-10-19T08:44:17.222Z,11.10
2018-10-19T08:49:01.079Z,11.10
2018-10-19T08:53:44.998Z,11.00
2018-10-19T08:58:29.174Z,10.80
2018-10-19T09:03:13.466Z,10.80
2018-10-19T09:07:57.386Z,11.00
2018-10-19T09:12:41.510Z,11.00
2018-10-19T09:17:25.936Z,10.90
2018-10-19T09:22:09.929Z,10.90
2018-10-19T09:26:54.128Z,10.90
2018-10-19T09:31:37.998Z,11.10
2018-10-19T09:36:22.205Z,11.20
2018-10-19T09:41:06.206Z,11.30
2018-10-19T09:45:50.315Z,11.40
2018-10-19T09:50:34.391Z,11.30
2018-10-19T09:55:18.495Z,11.20
2018-10-19T10:00:02.454Z,11.20
2018-10-19T10:04:46.883Z,11.10
2018-10-19T10:09:30.701Z,11.30
2018-10-19T10:14:14.675Z,11.20
2018-10-19T10:18:58.657Z,11.20
2018-10-19T10:23:43.241Z,11.20
2018-10-19T10:28:27.231Z,11.30
2018-10-19T10:33:11.699Z,11.40
2018-10-19T10:37:55.638Z,11.50
2018-10-19T10:42:39.900Z,11.60
2018-10-19T10:47:23.790Z,11.60
2018-10-19T10:52:07.960Z,11.80
2018-10-19T10:56:51.904Z,12.00
2018-10-19T11:01:36.732Z,12.10
2018-10-19T11:06:20.476Z,12.20
2018-10-19T11:11:12.730Z,12.50
2018-10-19T11:15:56.730Z,12.50
2018-10-19T11:20:40.750Z,12.50
2018-10-19T11:25:24.541Z,12.40
2018-10-19T11:30:09.160Z,12.30
2018-10-19T11:34:53.326Z,12.30
2018-10-19T11:40:43.766Z,12.20
2018-10-19T11:45:29.525Z,12.00
2018-10-19T11:50:14.209Z,12.10
2018-10-19T11:54:59.501Z,12.10
2018-10-19T11:59:43.718Z,12.20
2018-10-19T12:04:27.815Z,12.30
2018-10-19T12:09:12.146Z,12.40
2018-10-19T12:13:56.259Z,12.50
2018-10-19T12:18:40.355Z,12.50
2018-10-19T12:23:24.382Z,12.60
2018-10-19T12:28:08.390Z,12.40
2018-10-19T12:32:52.167Z,12.70
2018-10-19T12:37:36.191Z,12.80
2018-10-19T12:42:20.089Z,12.70
2018-10-19T12:47:15.215Z,12.70
2018-10-19T12:51:59.379Z,12.80
2018-10-19T12:56:43.524Z,12.80
2018-10-19T13:01:28.658Z,12.80
2018-10-19T13:06:12.839Z,12.80
2018-10-19T13:10:56.935Z,12.70
2018-10-19T13:15:40.959Z,12.80
2018-10-19T13:20:24.915Z,12.80
2018-10-19T13:25:08.835Z,12.80
2018-10-19T13:29:53.389Z,12.90
2018-10-19T13:34:37.216Z,12.90
2018-10-19T13:39:21.056Z,12.90
2018-10-19T13:44:05.119Z,13.00
2018-10-19T13:48:49.179Z,13.00
2018-10-19T13:53:33.162Z,13.00
2018-10-19T13:58:17.168Z,13.00
2018-10-19T14:03:01.252Z,13.00
2018-10-19T14:07:45.033Z,12.90
2018-10-19T14:12:28.937Z,12.80
2018-10-19T14:17:12.907Z,12.70
2018-10-19T14:21:57.015Z,12.70
2018-10-19T14:26:41.626Z,12.70
2018-10-19T14:31:25.623Z,12.60
2018-10-19T14:36:10.221Z,12.50
2018-10-19T14:40:54.324Z,12.40
2018-10-19T14:45:38.274Z,12.30
2018-10-19T14:50:22.341Z,12.20
2018-10-19T14:55:07.879Z,12.20
2018-10-19T14:59:51.759Z,12.20
2018-10-19T15:04:35.716Z,12.20
2018-10-19T15:09:19.856Z,12.20
2018-10-19T15:14:03.671Z,12.00
2018-10-19T15:18:47.576Z,12.00
2018-10-19T15:23:31.677Z,12.10
2018-10-19T15:28:15.704Z,11.90
2018-10-19T15:32:59.543Z,11.80
2018-10-19T15:37:43.573Z,11.80
2018-10-19T15:42:27.876Z,11.70
2018-10-19T15:47:11.844Z,11.60
2018-10-19T15:51:55.663Z,11.60
2018-10-19T15:56:39.552Z,11.50
2018-10-19T16:01:23.823Z,11.40
2018-10-19T16:06:08.293Z,11.40
2018-10-19T16:10:52.687Z,11.30
2018-10-19T16:15:36.896Z,11.30
2018-10-19T16:20:21.117Z,11.20
2018-10-19T16:25:06.004Z,11.30
2018-10-19T16:29:49.762Z,11.30
2018-10-19T16:34:34.031Z,11.30
2018-10-19T16:39:18.716Z,11.30
2018-10-19T16:44:02.806Z,11.30
2018-10-19T16:48:47.056Z,11.30
2018-10-19T16:53:31.550Z,11.30
2018-10-19T16:58:15.635Z,11.30
2018-10-19T17:02:59.586Z,11.20
2018-10-19T17:07:43.771Z,11.10
2018-10-19T17:12:28.857Z,11.20
2018-10-19T17:17:12.761Z,11.10
2018-10-19T17:21:57.172Z,11.10
2018-10-19T17:26:42.082Z,11.10
2018-10-19T17:31:26.358Z,11.10
2018-10-19T17:36:10.512Z,11.00
2018-10-19T17:40:54.864Z,11.00
2018-10-19T17:45:38.976Z,11.00
2018-10-19T17:50:23.079Z,10.90
2018-10-19T17:55:08.612Z,10.90
2018-10-19T17:59:52.529Z,10.90
2018-10-19T18:04:36.985Z,10.80
2018-10-19T18:09:21.922Z,10.80
2018-10-19T18:14:06.485Z,10.80
2018-10-19T18:18:50.397Z,10.80
2018-10-19T18:23:34.444Z,10.70
2018-10-19T18:28:18.740Z,10.80
2018-10-19T18:33:03.150Z,10.70
2018-10-19T18:37:47.531Z,10.60
2018-10-19T18:42:31.660Z,10.60
2018-10-19T18:47:16.310Z,10.60
2018-10-19T18:52:01.670Z,10.50
2018-10-19T18:56:45.708Z,10.50
2018-10-19T19:01:29.749Z,10.50
2018-10-19T19:06:14.035Z,10.50
2018-10-19T19:15:44.649Z,10.50
2018-10-19T19:20:30.750Z,10.50
2018-10-19T19:25:19.854Z,10.50
2018-10-19T19:30:04.101Z,10.50
2018-10-19T19:34:48.168Z,10.50
2018-10-19T19:39:34.236Z,10.60
2018-10-19T19:44:18.780Z,10.50
2018-10-19T19:49:08.484Z,10.40
2018-10-19T19:53:52.811Z,10.40
2018-10-19T19:58:36.844Z,10.40
2018-10-19T20:03:20.785Z,10.40
2018-10-19T20:08:05.033Z,10.40
2018-10-19T20:12:48.935Z,10.40
2018-10-19T20:17:33.090Z,10.40
2018-10-19T20:22:16.945Z,10.30
2018-10-19T20:27:00.844Z,10.30
2018-10-19T20:31:45.511Z,10.30
2018-10-19T20:36:29.430Z,10.30
2018-10-19T20:41:13.176Z,10.20
2018-10-19T20:45:56.906Z,10.40
2018-10-19T20:50:40.640Z,10.30
2018-10-19T20:55:24.346Z,10.20
2018-10-19T21:00:08.913Z,10.10
2018-10-19T21:04:52.773Z,10.20
2018-10-19T21:09:36.548Z,10.20
2018-10-19T21:14:20.343Z,10.20
2018-10-19T21:19:04.121Z,10.20
2018-10-19T21:23:48.216Z,10.20
2018-10-19T21:28:31.876Z,10.10
2018-10-19T21:33:15.663Z,10.10
2018-10-19T21:37:59.540Z,10.10
2018-10-19T21:42:43.327Z,10.10
2018-10-19T21:47:27.300Z,10.10
2018-10-19T21:52:11.407Z,10.20
2018-10-19T21:56:55.577Z,10.20
2018-10-19T22:01:40.673Z,10.20
2018-10-19T22:06:24.497Z,10.20
2018-10-19T22:11:08.455Z,10.10
2018-10-19T22:15:52.440Z,10.10
2018-10-19T22:20:36.379Z,10.00
2018-10-19T22:25:21.374Z,10.00
2018-10-19T22:30:05.823Z,10.00
2018-10-19T22:34:49.637Z,10.10
2018-10-19T22:39:33.363Z,10.00
2018-10-19T22:44:17.372Z,9.90
2018-10-19T22:49:01.362Z,9.90
2018-10-19T22:53:45.191Z,9.90
2018-10-19T22:58:29.006Z,9.90
2018-10-19T23:03:12.742Z,10.00
2018-10-19T23:07:56.881Z,10.00
2018-10-19T23:12:40.623Z,10.00
2018-10-19T23:17:24.653Z,10.00
2018-10-19T23:22:08.431Z,10.10
2018-10-19T23:26:52.345Z,10.00
2018-10-19T23:31:36.371Z,10.00
2018-10-19T23:36:19.937Z,9.90
2018-10-19T23:41:04.009Z,9.90
2018-10-19T23:45:47.916Z,9.90
2018-10-19T23:50:31.549Z,9.90
2018-10-19T23:55:15.420Z,9.90
2018-10-19T23:59:59.307Z,9.80
